Time;durP1;ratioP1;P1;durP2;ratioP2;P2;SDS_P1;SDS_P2;PMS_P1;PMS_P2;Temp;Humidity;BMP_temperature;BMP_pressure;BME280_temperature;BME280_humidity;BME280_pressure;Samples;Min_cycle;Max_cycle;Signal;HPM_P1;HPM_P2
2023/03/31 00:00:11;;;;;;;;;;;10.50;99.90;;;;;;5026984;28;20446;-65
2023/03/31 00:02:40;;;;;;;;;;;10.40;99.90;;;;;;5032161;28;20016;-64
2023/03/31 00:05:07;;;;;;;;;;;10.40;99.90;;;;;;5027772;28;19929;-64
2023/03/31 00:07:36;;;;;;;;;;;10.40;99.90;;;;;;5032373;28;19932;-64
2023/03/31 00:10:03;;;;;;;;;;;10.40;99.90;;;;;;5027950;28;19925;-64
2023/03/31 00:12:31;;;;;;;;;;;10.40;99.90;;;;;;5032187;28;19925;-64
2023/03/31 00:14:58;;;;;;;;;;;10.30;99.90;;;;;;5027653;28;19933;-64
2023/03/31 00:17:25;;;;;;;;;;;10.30;99.90;;;;;;5032004;28;19925;-64
2023/03/31 00:19:52;;;;;;;;;;;10.30;99.90;;;;;;5030018;28;19925;-64
2023/03/31 00:22:21;;;;;;;;;;;10.30;99.90;;;;;;5032223;28;19979;-64
2023/03/31 00:24:47;;;;;;;;;;;10.30;99.90;;;;;;5027831;28;19930;-64
2023/03/31 00:27:14;;;;;;;;;;;10.30;99.90;;;;;;5032224;28;19929;-64
2023/03/31 00:29:42;;;;;;;;;;;10.40;99.90;;;;;;5028701;28;19925;-65
2023/03/31 00:32:08;;;;;;;;;;;10.30;99.90;;;;;;5035898;28;20442;-64
2023/03/31 00:34:36;;;;;;;;;;;10.30;99.90;;;;;;5034541;28;19971;-64
2023/03/31 00:37:02;;;;;;;;;;;10.30;99.90;;;;;;5035643;28;19929;-64
2023/03/31 00:39:32;;;;;;;;;;;10.30;99.90;;;;;;5031769;28;19979;-64
2023/03/31 00:41:59;;;;;;;;;;;10.40;99.90;;;;;;5035896;28;19925;-64
2023/03/31 00:44:29;;;;;;;;;;;10.30;99.90;;;;;;5034114;28;20414;-64
2023/03/31 00:47:00;;;;;;;;;;;10.40;99.90;;;;;;5032303;28;19925;-64
2023/03/31 00:49:28;;;;;;;;;;;10.40;99.90;;;;;;5034015;28;19925;-64
2023/03/31 00:51:57;;;;;;;;;;;10.40;99.90;;;;;;5035229;28;19964;-65
2023/03/31 00:54:25;;;;;;;;;;;10.40;99.90;;;;;;5031226;28;19937;-65
2023/03/31 00:56:57;;;;;;;;;;;10.40;99.90;;;;;;5035403;28;19925;-64
2023/03/31 00:59:26;;;;;;;;;;;10.40;99.90;;;;;;5034198;28;20011;-64
2023/03/31 01:01:53;;;;;;;;;;;10.50;99.90;;;;;;5032599;28;19932;-64
2023/03/31 01:04:22;;;;;;;;;;;10.50;99.90;;;;;;5032972;28;19926;-64
2023/03/31 01:06:56;;;;;;;;;;;10.50;99.90;;;;;;5031944;28;19926;-64
2023/03/31 01:09:23;;;;;;;;;;;10.60;99.90;;;;;;5031214;28;19935;-64
2023/03/31 01:11:50;;;;;;;;;;;10.50;99.90;;;;;;5035509;28;19925;-64
2023/03/31 01:14:16;;;;;;;;;;;10.50;99.90;;;;;;5027670;28;19956;-64
2023/03/31 01:16:43;;;;;;;;;;;10.50;99.90;;;;;;5034853;28;19979;-64
2023/03/31 01:19:13;;;;;;;;;;;10.40;99.90;;;;;;5034206;28;19926;-64
2023/03/31 01:21:58;;;;;;;;;;;10.40;99.90;;;;;;5034937;28;20280;-64
2023/03/31 01:24:46;;;;;;;;;;;10.40;99.90;;;;;;5029677;28;19972;-64
2023/03/31 01:27:21;;;;;;;;;;;10.30;99.90;;;;;;5029921;28;19972;-64
2023/03/31 01:30:05;;;;;;;;;;;10.20;99.90;;;;;;5027422;28;19976;-65
2023/03/31 01:32:44;;;;;;;;;;;10.10;99.90;;;;;;5033428;28;20288;-64
2023/03/31 01:35:26;;;;;;;;;;;10.00;99.90;;;;;;5027819;28;19929;-65
2023/03/31 01:38:18;;;;;;;;;;;10.00;99.90;;;;;;5025194;28;19925;-65
2023/03/31 01:40:53;;;;;;;;;;;10.00;99.90;;;;;;5027176;28;20335;-64
2023/03/31 01:43:23;;;;;;;;;;;10.00;99.90;;;;;;5033670;28;19932;-64
2023/03/31 01:45:55;;;;;;;;;;;10.00;99.90;;;;;;5034726;28;19931;-64
2023/03/31 01:48:24;;;;;;;;;;;10.00;99.90;;;;;;5034635;28;19925;-64
2023/03/31 01:50:55;;;;;;;;;;;9.90;99.90;;;;;;5030113;28;19953;-65
2023/03/31 01:53:23;;;;;;;;;;;9.90;99.90;;;;;;5034588;28;19929;-65
2023/03/31 01:55:57;;;;;;;;;;;9.90;99.90;;;;;;5029749;28;19929;-65
2023/03/31 01:58:25;;;;;;;;;;;9.90;99.90;;;;;;5027472;28;19924;-64
2023/03/31 02:00:55;;;;;;;;;;;10.00;99.90;;;;;;5027777;28;19925;-64
2023/03/31 02:03:23;;;;;;;;;;;10.00;99.90;;;;;;5034238;28;19976;-65
2023/03/31 02:05:52;;;;;;;;;;;10.00;99.90;;;;;;5031955;28;19934;-65
2023/03/31 02:08:22;;;;;;;;;;;9.90;99.90;;;;;;5030890;28;19943;-64
2023/03/31 02:10:49;;;;;;;;;;;9.90;99.90;;;;;;5031716;28;19979;-64
2023/03/31 02:13:17;;;;;;;;;;;9.90;99.90;;;;;;5033999;28;19932;-65
2023/03/31 02:15:46;;;;;;;;;;;9.90;99.90;;;;;;5020428;28;19929;-65
2023/03/31 02:18:16;;;;;;;;;;;9.80;99.90;;;;;;5032994;28;19944;-65
2023/03/31 02:20:45;;;;;;;;;;;9.80;99.90;;;;;;5028360;28;20410;-65
2023/03/31 02:23:13;;;;;;;;;;;9.90;99.90;;;;;;5034280;28;19979;-64
2023/03/31 02:25:45;;;;;;;;;;;9.90;99.90;;;;;;5026102;28;19932;-65
2023/03/31 02:28:13;;;;;;;;;;;9.80;99.90;;;;;;5033662;28;19925;-64
2023/03/31 02:30:45;;;;;;;;;;;9.80;99.90;;;;;;5029398;28;19925;-64
2023/03/31 02:33:12;;;;;;;;;;;9.80;99.90;;;;;;5033887;28;19925;-65
2023/03/31 02:35:38;;;;;;;;;;;9.90;99.90;;;;;;5027996;28;19925;-63
2023/03/31 02:38:05;;;;;;;;;;;9.90;99.90;;;;;;5033611;28;19929;-63
2023/03/31 02:40:32;;;;;;;;;;;10.00;99.90;;;;;;5029248;28;19979;-64
2023/03/31 02:42:58;;;;;;;;;;;10.00;99.90;;;;;;5031350;28;19925;-64
2023/03/31 02:45:43;;;;;;;;;;;10.00;99.90;;;;;;5029181;28;19932;-64
2023/03/31 02:48:13;;;;;;;;;;;10.00;99.90;;;;;;5033595;28;19925;-63
2023/03/31 02:50:51;;;;;;;;;;;10.00;99.90;;;;;;5031713;28;19933;-63
2023/03/31 02:53:20;;;;;;;;;;;10.00;99.90;;;;;;5028964;28;19933;-63
2023/03/31 02:55:56;;;;;;;;;;;10.00;99.90;;;;;;5028562;28;19933;-64
2023/03/31 02:58:38;;;;;;;;;;;10.00;99.90;;;;;;5030629;28;19983;-64
2023/03/31 03:01:11;;;;;;;;;;;10.00;99.90;;;;;;5026333;28;19980;-63
2023/03/31 03:03:42;;;;;;;;;;;10.00;99.90;;;;;;5033438;28;19925;-64
2023/03/31 03:06:18;;;;;;;;;;;9.90;99.90;;;;;;5031366;28;19972;-63
2023/03/31 03:08:54;;;;;;;;;;;9.90;99.90;;;;;;5030015;28;19933;-64
2023/03/31 03:11:24;;;;;;;;;;;9.90;99.90;;;;;;5032592;28;19929;-64
2023/03/31 03:13:52;;;;;;;;;;;9.90;99.90;;;;;;5032447;28;20387;-64
2023/03/31 03:16:23;;;;;;;;;;;9.90;99.90;;;;;;5029221;28;19948;-64
2023/03/31 03:18:56;;;;;;;;;;;9.90;99.90;;;;;;5032647;28;19984;-64
2023/03/31 03:21:23;;;;;;;;;;;9.90;99.90;;;;;;5029762;28;19929;-64
2023/03/31 03:23:50;;;;;;;;;;;9.80;99.90;;;;;;5032290;28;19932;-64
2023/03/31 03:26:20;;;;;;;;;;;9.80;99.90;;;;;;5031971;28;20413;-64
2023/03/31 03:28:46;;;;;;;;;;;9.80;99.90;;;;;;5032717;28;19960;-63
2023/03/31 03:31:14;;;;;;;;;;;9.80;99.90;;;;;;5028955;28;19925;-64
2023/03/31 03:33:40;;;;;;;;;;;9.80;99.90;;;;;;5032731;28;19925;-64
2023/03/31 03:36:09;;;;;;;;;;;9.80;99.90;;;;;;5031541;28;19936;-64
2023/03/31 03:38:35;;;;;;;;;;;9.80;99.90;;;;;;5028983;28;19929;-64
2023/03/31 03:41:02;;;;;;;;;;;9.80;99.90;;;;;;5028276;28;19928;-64
2023/03/31 03:43:28;;;;;;;;;;;9.80;99.90;;;;;;5032712;28;19929;-64
2023/03/31 03:45:55;;;;;;;;;;;9.70;99.90;;;;;;5026837;28;19925;-64
2023/03/31 03:48:21;;;;;;;;;;;9.70;99.90;;;;;;5032821;28;19925;-64
2023/03/31 03:50:48;;;;;;;;;;;9.70;99.90;;;;;;5028244;28;19979;-64
2023/03/31 03:53:16;;;;;;;;;;;9.70;99.90;;;;;;5032583;28;20276;-64
2023/03/31 03:55:43;;;;;;;;;;;9.70;99.90;;;;;;5027813;28;19924;-64
2023/03/31 03:58:10;;;;;;;;;;;9.70;99.90;;;;;;5033594;28;19939;-64
2023/03/31 04:00:37;;;;;;;;;;;9.70;99.90;;;;;;5028165;28;19925;-64
2023/03/31 04:03:03;;;;;;;;;;;9.80;99.90;;;;;;5024331;28;19929;-64
2023/03/31 04:05:30;;;;;;;;;;;9.80;99.90;;;;;;5032126;28;19929;-64
2023/03/31 04:07:56;;;;;;;;;;;9.70;99.90;;;;;;5027559;28;19932;-64
2023/03/31 04:10:24;;;;;;;;;;;9.70;99.90;;;;;;5031981;28;19932;-64
2023/03/31 04:12:51;;;;;;;;;;;9.70;99.90;;;;;;5027732;28;19925;-64
2023/03/31 04:15:17;;;;;;;;;;;9.70;99.90;;;;;;5026060;28;19925;-64
2023/03/31 04:17:49;;;;;;;;;;;9.70;99.90;;;;;;5032100;28;20307;-64
2023/03/31 04:20:17;;;;;;;;;;;9.70;99.90;;;;;;5024322;28;20049;-64
2023/03/31 04:22:46;;;;;;;;;;;9.70;99.90;;;;;;5032694;28;19929;-64
2023/03/31 04:25:15;;;;;;;;;;;9.70;99.90;;;;;;5028036;28;19926;-64
2023/03/31 04:27:45;;;;;;;;;;;9.70;99.90;;;;;;5032214;28;19925;-65
2023/03/31 04:30:12;;;;;;;;;;;9.70;99.90;;;;;;5027610;28;20507;-65
2023/03/31 04:32:39;;;;;;;;;;;9.70;99.90;;;;;;5031933;28;20380;-65
2023/03/31 04:35:06;;;;;;;;;;;9.70;99.90;;;;;;5029291;28;19932;-65
2023/03/31 04:37:33;;;;;;;;;;;9.70;99.90;;;;;;5031874;28;20303;-65
2023/03/31 04:40:06;;;;;;;;;;;9.70;99.90;;;;;;5027834;28;19932;-65
2023/03/31 04:42:33;;;;;;;;;;;9.70;99.90;;;;;;5029127;28;20411;-66
2023/03/31 04:45:01;;;;;;;;;;;9.70;99.90;;;;;;5027186;28;19971;-65
2023/03/31 04:47:27;;;;;;;;;;;9.70;99.90;;;;;;5031935;28;19925;-65
2023/03/31 04:49:54;;;;;;;;;;;9.70;99.90;;;;;;5027963;28;19940;-66
2023/03/31 04:52:20;;;;;;;;;;;9.70;99.90;;;;;;5026489;28;19932;-66
2023/03/31 04:54:47;;;;;;;;;;;9.80;99.90;;;;;;5025420;28;19930;-66
2023/03/31 04:57:14;;;;;;;;;;;9.80;99.90;;;;;;5031077;28;19937;-66
2023/03/31 04:59:40;;;;;;;;;;;9.80;99.90;;;;;;5026371;28;20012;-66
2023/03/31 05:02:08;;;;;;;;;;;9.70;99.90;;;;;;5031573;28;20000;-66
2023/03/31 05:04:36;;;;;;;;;;;9.80;99.90;;;;;;5027482;28;19926;-66
2023/03/31 05:07:03;;;;;;;;;;;9.70;99.90;;;;;;5031490;28;19971;-66
2023/03/31 05:09:29;;;;;;;;;;;9.70;99.90;;;;;;5026699;28;19932;-66
2023/03/31 05:11:56;;;;;;;;;;;9.60;99.90;;;;;;5030591;28;19929;-66
2023/03/31 05:14:23;;;;;;;;;;;9.70;99.90;;;;;;5025648;28;19937;-66
2023/03/31 05:16:50;;;;;;;;;;;9.70;99.90;;;;;;5031763;28;19925;-66
2023/03/31 05:19:18;;;;;;;;;;;9.60;99.90;;;;;;5032074;28;19925;-66
2023/03/31 05:21:45;;;;;;;;;;;9.60;99.90;;;;;;5035095;28;19925;-64
2023/03/31 05:24:12;;;;;;;;;;;9.60;99.90;;;;;;5028916;28;20295;-64
2023/03/31 05:26:39;;;;;;;;;;;9.60;99.90;;;;;;5034595;28;19935;-63
2023/03/31 05:29:06;;;;;;;;;;;9.60;99.90;;;;;;5029034;28;20595;-64
2023/03/31 05:31:32;;;;;;;;;;;9.60;99.90;;;;;;5031837;28;19929;-62
2023/03/31 05:33:59;;;;;;;;;;;9.60;99.90;;;;;;5028336;28;19925;-63
2023/03/31 05:36:27;;;;;;;;;;;9.60;99.90;;;;;;5034206;28;19941;-65
2023/03/31 05:38:53;;;;;;;;;;;9.60;99.90;;;;;;5027546;28;19937;-63
2023/03/31 05:41:20;;;;;;;;;;;9.60;99.90;;;;;;5030853;28;19932;-64
2023/03/31 05:43:46;;;;;;;;;;;9.60;99.90;;;;;;5029668;28;19926;-64
2023/03/31 05:46:13;;;;;;;;;;;9.60;99.90;;;;;;5034467;28;19936;-63
2023/03/31 05:48:40;;;;;;;;;;;9.50;99.90;;;;;;5034186;28;19925;-64
2023/03/31 05:51:06;;;;;;;;;;;9.60;99.90;;;;;;5028839;28;19929;-68
2023/03/31 05:53:34;;;;;;;;;;;9.50;99.90;;;;;;5022621;28;19926;-64
2023/03/31 05:56:01;;;;;;;;;;;9.60;99.90;;;;;;5030674;28;20303;-62
2023/03/31 05:58:28;;;;;;;;;;;9.60;99.90;;;;;;5032954;28;19933;-63
2023/03/31 06:01:04;;;;;;;;;;;9.60;99.90;;;;;;5030250;28;19932;-58
2023/03/31 06:03:31;;;;;;;;;;;9.60;99.90;;;;;;5033149;28;20296;-60
2023/03/31 06:05:57;;;;;;;;;;;9.60;99.90;;;;;;5027881;28;20307;-61
2023/03/31 06:08:24;;;;;;;;;;;9.60;99.90;;;;;;5033255;28;19925;-60
2023/03/31 06:10:52;;;;;;;;;;;9.60;99.90;;;;;;5031050;28;19929;-60
2023/03/31 06:13:19;;;;;;;;;;;9.60;99.90;;;;;;5031553;28;19929;-61
2023/03/31 06:15:52;;;;;;;;;;;9.60;99.90;;;;;;5028547;28;19947;-62
2023/03/31 06:18:19;;;;;;;;;;;9.60;99.90;;;;;;5033009;28;19936;-61
2023/03/31 06:20:45;;;;;;;;;;;9.60;99.90;;;;;;5026446;28;20794;-61
2023/03/31 06:23:12;;;;;;;;;;;9.60;99.90;;;;;;5032619;28;19925;-62
2023/03/31 06:25:39;;;;;;;;;;;9.60;99.90;;;;;;5028240;28;20386;-62
2023/03/31 06:28:07;;;;;;;;;;;9.60;99.90;;;;;;5032875;28;19929;-59
2023/03/31 06:30:33;;;;;;;;;;;9.60;99.90;;;;;;5028250;28;20387;-60
2023/03/31 06:33:00;;;;;;;;;;;9.60;99.90;;;;;;5031933;28;20032;-60
2023/03/31 06:35:26;;;;;;;;;;;9.60;99.90;;;;;;5030010;28;19929;-62
2023/03/31 06:37:53;;;;;;;;;;;9.50;99.90;;;;;;5032893;28;19925;-62
2023/03/31 06:40:20;;;;;;;;;;;9.50;99.90;;;;;;5029680;28;19929;-62
2023/03/31 06:42:46;;;;;;;;;;;9.50;99.90;;;;;;5032360;28;19933;-64
2023/03/31 06:45:14;;;;;;;;;;;9.40;99.90;;;;;;5028053;28;19925;-64
2023/03/31 06:47:41;;;;;;;;;;;9.40;99.90;;;;;;5034142;28;19952;-62
2023/03/31 06:50:08;;;;;;;;;;;9.40;99.90;;;;;;5028302;28;19925;-62
2023/03/31 06:52:35;;;;;;;;;;;9.40;99.90;;;;;;5034472;28;19925;-62
2023/03/31 06:55:02;;;;;;;;;;;9.40;99.90;;;;;;5028023;28;19932;-62
2023/03/31 06:57:28;;;;;;;;;;;9.40;99.90;;;;;;5032748;28;19935;-65
2023/03/31 06:59:55;;;;;;;;;;;9.40;99.90;;;;;;5028006;28;19992;-63
2023/03/31 07:02:23;;;;;;;;;;;9.40;99.90;;;;;;5031961;28;19944;-62
2023/03/31 07:04:49;;;;;;;;;;;9.30;99.90;;;;;;5027244;28;19932;-61
2023/03/31 07:07:16;;;;;;;;;;;9.30;99.90;;;;;;5032323;28;19932;-61
2023/03/31 07:09:42;;;;;;;;;;;9.30;99.90;;;;;;5028327;28;19926;-60
2023/03/31 07:12:09;;;;;;;;;;;9.30;99.90;;;;;;5032224;28;19929;-62
2023/03/31 07:14:36;;;;;;;;;;;9.30;99.90;;;;;;5027956;28;19932;-63
2023/03/31 07:17:02;;;;;;;;;;;9.30;99.90;;;;;;5032320;28;19932;-61
2023/03/31 07:19:30;;;;;;;;;;;9.30;99.90;;;;;;5028830;28;19930;-61
2023/03/31 07:21:57;;;;;;;;;;;9.30;99.90;;;;;;5031714;28;19929;-62
2023/03/31 07:24:23;;;;;;;;;;;9.30;99.90;;;;;;5028614;28;19925;-60
2023/03/31 07:26:50;;;;;;;;;;;9.30;99.90;;;;;;5030888;28;19925;-61
2023/03/31 07:29:17;;;;;;;;;;;9.20;99.90;;;;;;5031717;28;19926;-62
2023/03/31 07:31:46;;;;;;;;;;;9.20;99.90;;;;;;5027679;28;19933;-62
2023/03/31 07:34:13;;;;;;;;;;;9.20;99.90;;;;;;5026795;28;20295;-64
2023/03/31 07:36:41;;;;;;;;;;;9.20;99.90;;;;;;5019808;28;20822;-63
2023/03/31 07:39:07;;;;;;;;;;;9.30;99.90;;;;;;5030425;28;19936;-63
2023/03/31 07:41:34;;;;;;;;;;;9.30;99.90;;;;;;5021111;28;19926;-65
2023/03/31 07:44:01;;;;;;;;;;;9.30;99.90;;;;;;5030897;28;19925;-65
2023/03/31 07:46:28;;;;;;;;;;;9.30;99.90;;;;;;5028249;28;19925;-66
2023/03/31 07:48:55;;;;;;;;;;;9.30;99.90;;;;;;5031612;28;19936;-64
2023/03/31 07:51:23;;;;;;;;;;;9.30;99.90;;;;;;5027656;28;19929;-64
2023/03/31 07:53:51;;;;;;;;;;;9.30;99.90;;;;;;5031099;28;19936;-64
2023/03/31 07:56:18;;;;;;;;;;;9.30;99.90;;;;;;5027104;28;19929;-66
2023/03/31 07:58:45;;;;;;;;;;;9.30;99.90;;;;;;5031959;28;19932;-64
2023/03/31 08:01:15;;;;;;;;;;;9.30;99.90;;;;;;5028080;28;20295;-64
2023/03/31 08:03:42;;;;;;;;;;;9.30;99.90;;;;;;5028208;28;20012;-64
2023/03/31 08:06:08;;;;;;;;;;;9.30;99.90;;;;;;5025248;28;19925;-65
2023/03/31 08:08:37;;;;;;;;;;;9.30;99.90;;;;;;5028640;28;19925;-66
2023/03/31 08:11:05;;;;;;;;;;;9.40;99.90;;;;;;5030305;28;20418;-65
2023/03/31 08:13:32;;;;;;;;;;;9.40;99.90;;;;;;5031069;28;19925;-65
2023/03/31 08:15:58;;;;;;;;;;;9.40;99.90;;;;;;5024198;28;19929;-63
2023/03/31 08:18:25;;;;;;;;;;;9.50;99.90;;;;;;5031541;28;20299;-63
2023/03/31 08:20:51;;;;;;;;;;;9.60;99.90;;;;;;5028312;28;19925;-64
2023/03/31 08:23:18;;;;;;;;;;;9.70;99.90;;;;;;5027312;28;19932;-64
2023/03/31 08:25:44;;;;;;;;;;;9.80;99.90;;;;;;5028866;28;19924;-60
2023/03/31 08:28:13;;;;;;;;;;;9.80;99.90;;;;;;5031847;28;19925;-59
2023/03/31 08:30:40;;;;;;;;;;;9.90;99.90;;;;;;5026896;28;20386;-63
2023/03/31 08:33:07;;;;;;;;;;;9.90;99.90;;;;;;5031308;28;20351;-64
2023/03/31 08:35:34;;;;;;;;;;;10.00;99.90;;;;;;5028078;28;19933;-64
2023/03/31 08:38:00;;;;;;;;;;;10.00;99.90;;;;;;5031109;28;19925;-64
2023/03/31 08:40:28;;;;;;;;;;;10.10;99.90;;;;;;5028508;28;19947;-63
2023/03/31 08:42:57;;;;;;;;;;;10.10;99.90;;;;;;5027277;28;19948;-64
2023/03/31 08:45:27;;;;;;;;;;;10.10;99.90;;;;;;5024474;28;19925;-64
2023/03/31 08:47:56;;;;;;;;;;;10.10;99.90;;;;;;5020990;28;19933;-64
2023/03/31 08:50:24;;;;;;;;;;;10.10;99.90;;;;;;5025249;28;19988;-62
2023/03/31 08:52:55;;;;;;;;;;;10.10;99.90;;;;;;5033906;28;19925;-62
2023/03/31 08:55:25;;;;;;;;;;;10.10;99.90;;;;;;5022980;28;20008;-63
2023/03/31 08:57:54;;;;;;;;;;;10.10;99.90;;;;;;5030920;28;19925;-63
2023/03/31 09:00:21;;;;;;;;;;;10.20;99.90;;;;;;5027158;28;19925;-62
2023/03/31 09:02:51;;;;;;;;;;;10.20;99.90;;;;;;5030311;28;19925;-64
2023/03/31 09:05:34;;;;;;;;;;;10.20;99.90;;;;;;5030975;28;19932;-63
2023/03/31 09:08:06;;;;;;;;;;;10.20;99.90;;;;;;5030363;28;19933;-63
2023/03/31 09:10:40;;;;;;;;;;;10.30;99.90;;;;;;5031154;28;19931;-64
2023/03/31 09:13:12;;;;;;;;;;;10.20;99.90;;;;;;5030590;28;19987;-66
2023/03/31 09:15:40;;;;;;;;;;;10.20;99.90;;;;;;5030323;28;19932;-65
2023/03/31 09:18:15;;;;;;;;;;;10.20;99.90;;;;;;5026361;28;19932;-65
2023/03/31 09:20:44;;;;;;;;;;;10.20;99.90;;;;;;5031457;28;19925;-63
2023/03/31 09:23:17;;;;;;;;;;;10.20;99.90;;;;;;5029970;28;19929;-64
2023/03/31 09:25:44;;;;;;;;;;;10.20;99.90;;;;;;5032006;28;20280;-61
2023/03/31 09:28:13;;;;;;;;;;;10.30;99.90;;;;;;5027311;28;19925;-63
2023/03/31 09:30:41;;;;;;;;;;;10.40;99.90;;;;;;5025994;28;19929;-62
2023/03/31 09:33:12;;;;;;;;;;;10.60;99.90;;;;;;5031355;28;19929;-62
2023/03/31 09:35:38;;;;;;;;;;;10.60;99.90;;;;;;5034509;28;20019;-62
2023/03/31 09:38:05;;;;;;;;;;;10.60;99.90;;;;;;5032194;28;19933;-62
2023/03/31 09:40:32;;;;;;;;;;;10.70;99.90;;;;;;5035169;28;20245;-64
2023/03/31 09:43:01;;;;;;;;;;;10.80;99.90;;;;;;5030372;28;19932;-61
2023/03/31 09:45:29;;;;;;;;;;;11.00;99.90;;;;;;5027460;28;19925;-63
2023/03/31 09:47:57;;;;;;;;;;;11.00;99.90;;;;;;5036735;28;19929;-66
2023/03/31 09:50:26;;;;;;;;;;;11.10;99.90;;;;;;5033923;28;19932;-65
2023/03/31 09:52:55;;;;;;;;;;;11.10;99.90;;;;;;5031646;28;19933;-62
2023/03/31 09:55:23;;;;;;;;;;;11.10;99.90;;;;;;5029202;28;19929;-63
2023/03/31 09:57:50;;;;;;;;;;;11.10;99.90;;;;;;5028447;28;19926;-63
2023/03/31 10:00:18;;;;;;;;;;;11.00;99.90;;;;;;5029392;28;19925;-62
2023/03/31 10:02:48;;;;;;;;;;;10.90;99.90;;;;;;5031589;28;19926;-62
2023/03/31 10:05:22;;;;;;;;;;;10.90;99.90;;;;;;5030559;28;19925;-64
2023/03/31 10:07:49;;;;;;;;;;;10.90;99.90;;;;;;5032338;28;19925;-63
2023/03/31 10:10:24;;;;;;;;;;;10.90;99.90;;;;;;5032367;28;19932;-68
2023/03/31 10:12:52;;;;;;;;;;;10.90;99.90;;;;;;5031702;28;19932;-63
2023/03/31 10:15:20;;;;;;;;;;;10.90;99.90;;;;;;5029361;28;19925;-61
2023/03/31 10:17:47;;;;;;;;;;;11.00;99.90;;;;;;5028416;28;20020;-62
2023/03/31 10:20:27;;;;;;;;;;;11.10;99.90;;;;;;5033894;28;19925;-69
2023/03/31 10:22:55;;;;;;;;;;;11.20;99.90;;;;;;5029464;28;19925;-63
2023/03/31 10:25:23;;;;;;;;;;;11.30;99.90;;;;;;5027478;28;19929;-63
2023/03/31 10:27:52;;;;;;;;;;;11.40;99.90;;;;;;5032158;28;19932;-64
2023/03/31 10:30:21;;;;;;;;;;;11.50;99.90;;;;;;5028884;28;20303;-64
2023/03/31 10:32:48;;;;;;;;;;;11.70;99.90;;;;;;5025853;28;20291;-64
2023/03/31 10:35:21;;;;;;;;;;;11.70;99.90;;;;;;5027025;28;19925;-67
2023/03/31 10:37:49;;;;;;;;;;;11.60;99.90;;;;;;5025856;28;19952;-64
2023/03/31 10:40:19;;;;;;;;;;;11.60;99.90;;;;;;5030225;28;20586;-64
2023/03/31 10:42:47;;;;;;;;;;;11.60;99.90;;;;;;5030658;28;19933;-63
2023/03/31 10:45:23;;;;;;;;;;;11.70;99.90;;;;;;5029769;28;19931;-65
2023/03/31 10:47:52;;;;;;;;;;;11.80;99.90;;;;;;5028148;28;19925;-64
2023/03/31 10:50:19;;;;;;;;;;;12.00;99.90;;;;;;5028520;28;20399;-64
2023/03/31 10:52:46;;;;;;;;;;;12.40;99.90;;;;;;5030113;28;19925;-63
2023/03/31 10:55:14;;;;;;;;;;;12.60;99.90;;;;;;5026717;28;19925;-64
2023/03/31 10:57:46;;;;;;;;;;;12.60;99.90;;;;;;5028696;28;19973;-65
2023/03/31 11:00:18;;;;;;;;;;;12.70;99.90;;;;;;5028176;28;19925;-64
2023/03/31 11:02:56;;;;;;;;;;;12.90;99.90;;;;;;5027184;28;20312;-63
2023/03/31 11:05:28;;;;;;;;;;;13.00;99.90;;;;;;5032297;28;19926;-64
2023/03/31 11:08:01;;;;;;;;;;;13.10;99.90;;;;;;5027277;28;21240;-64
2023/03/31 11:10:42;;;;;;;;;;;13.30;99.90;;;;;;5026558;28;20106;-71
2023/03/31 11:13:13;;;;;;;;;;;13.40;99.90;;;;;;5029255;28;19968;-67
2023/03/31 11:15:43;;;;;;;;;;;13.80;99.90;;;;;;5027305;28;19925;-67
2023/03/31 11:18:18;;;;;;;;;;;14.10;99.30;;;;;;5028145;28;19931;-69
2023/03/31 11:20:50;;;;;;;;;;;14.10;1.00;;;;;;5031823;28;19926;-68
2023/03/31 11:23:20;;;;;;;;;;;14.10;11.80;;;;;;5022670;28;19925;-67
2023/03/31 11:25:52;;;;;;;;;;;13.40;7.00;;;;;;5032007;28;19932;-66
2023/03/31 11:28:34;;;;;;;;;;;12.70;82.90;;;;;;5025349;28;19926;-67
2023/03/31 11:31:09;;;;;;;;;;;12.40;99.90;;;;;;5025649;28;19936;-67
2023/03/31 11:33:51;;;;;;;;;;;12.10;99.90;;;;;;5023739;28;19925;-66
2023/03/31 11:36:24;;;;;;;;;;;11.80;99.90;;;;;;5032197;28;19925;-73
2023/03/31 11:38:58;;;;;;;;;;;11.60;99.90;;;;;;5030061;28;19941;-67
2023/03/31 11:41:28;;;;;;;;;;;11.50;99.90;;;;;;5028459;28;19936;-65
2023/03/31 11:43:56;;;;;;;;;;;11.40;99.90;;;;;;5025606;28;19932;-65
2023/03/31 11:46:26;;;;;;;;;;;11.30;99.90;;;;;;5027777;28;19932;-65
2023/03/31 11:48:56;;;;;;;;;;;11.30;99.90;;;;;;5027288;28;19932;-65
2023/03/31 11:51:25;;;;;;;;;;;11.20;99.90;;;;;;5031813;28;19932;-64
2023/03/31 11:53:53;;;;;;;;;;;11.20;99.90;;;;;;5029061;28;19936;-65
2023/03/31 11:56:20;;;;;;;;;;;11.40;99.90;;;;;;5024221;28;19952;-65
2023/03/31 11:58:48;;;;;;;;;;;11.50;99.90;;;;;;5025788;28;19926;-65
2023/03/31 12:01:17;;;;;;;;;;;11.60;99.90;;;;;;5027464;28;19925;-64
2023/03/31 12:03:49;;;;;;;;;;;11.70;99.90;;;;;;5026866;28;19933;-63
2023/03/31 12:06:18;;;;;;;;;;;11.90;99.90;;;;;;5028477;28;19926;-66
2023/03/31 12:08:49;;;;;;;;;;;12.20;99.90;;;;;;5031215;28;20039;-66
2023/03/31 12:11:20;;;;;;;;;;;12.20;99.90;;;;;;5029612;28;19934;-66
2023/03/31 12:13:51;;;;;;;;;;;12.30;99.90;;;;;;5031452;28;19925;-66
2023/03/31 12:16:20;;;;;;;;;;;12.30;99.90;;;;;;5026975;28;19929;-66
2023/03/31 12:18:54;;;;;;;;;;;12.30;99.90;;;;;;5031373;28;19925;-65
2023/03/31 12:21:22;;;;;;;;;;;12.30;99.90;;;;;;5030382;28;19929;-69
2023/03/31 12:23:49;;;;;;;;;;;12.40;99.90;;;;;;5027701;28;19932;-70
2023/03/31 12:26:23;;;;;;;;;;;12.60;99.90;;;;;;5024956;28;19929;-71
2023/03/31 12:28:51;;;;;;;;;;;12.60;99.90;;;;;;5034213;28;19925;-68
2023/03/31 12:31:20;;;;;;;;;;;12.60;99.90;;;;;;5031409;28;20327;-67
2023/03/31 12:33:50;;;;;;;;;;;12.50;99.90;;;;;;5031534;28;19932;-65
2023/03/31 12:36:24;;;;;;;;;;;12.50;99.90;;;;;;5034168;28;19940;-66
2023/03/31 12:38:54;;;;;;;;;;;12.40;99.90;;;;;;5032457;28;20012;-65
2023/03/31 12:41:25;;;;;;;;;;;12.40;99.90;;;;;;5031103;28;20020;-63
2023/03/31 12:44:06;;;;;;;;;;;12.40;99.90;;;;;;5030913;28;20391;-64
2023/03/31 12:46:42;;;;;;;;;;;12.30;99.90;;;;;;5021152;28;19948;-64
2023/03/31 12:49:26;;;;;;;;;;;12.30;99.90;;;;;;5029702;28;20291;-66
2023/03/31 12:52:02;;;;;;;;;;;12.30;99.90;;;;;;5034135;28;19928;-64
2023/03/31 12:54:50;;;;;;;;;;;12.10;99.90;;;;;;5030225;28;20016;-64
2023/03/31 12:57:20;;;;;;;;;;;12.00;99.90;;;;;;5034629;28;20020;-64
2023/03/31 13:00:05;;;;;;;;;;;11.80;99.90;;;;;;5031414;28;19931;-66
2023/03/31 13:02:31;;;;;;;;;;;11.80;99.90;;;;;;5034556;28;19932;-64
2023/03/31 13:04:58;;;;;;;;;;;11.90;99.90;;;;;;5031399;28;19932;-62
2023/03/31 13:07:48;;;;;;;;;;;12.00;99.90;;;;;;5029255;28;19936;-62
2023/03/31 13:10:27;;;;;;;;;;;12.20;99.90;;;;;;5017293;28;19924;-62
2023/03/31 13:13:00;;;;;;;;;;;12.30;99.90;;;;;;5024328;28;19999;-64
2023/03/31 13:15:27;;;;;;;;;;;12.40;99.90;;;;;;5028003;28;19948;-64
2023/03/31 13:17:56;;;;;;;;;;;12.60;99.90;;;;;;5034786;28;20008;-63
2023/03/31 13:20:35;;;;;;;;;;;12.70;99.90;;;;;;5027676;28;19952;-64
2023/03/31 13:23:03;;;;;;;;;;;12.90;99.90;;;;;;5030316;28;19926;-62
2023/03/31 13:25:39;;;;;;;;;;;12.80;99.90;;;;;;5029583;28;19924;-62
2023/03/31 13:28:12;;;;;;;;;;;13.00;99.90;;;;;;5034240;28;19925;-63
2023/03/31 13:30:46;;;;;;;;;;;13.10;99.90;;;;;;5028546;28;19936;-64
2023/03/31 13:33:14;;;;;;;;;;;13.00;99.90;;;;;;5025562;28;20412;-63
2023/03/31 13:35:45;;;;;;;;;;;12.90;99.90;;;;;;5026509;28;19925;-64
2023/03/31 13:38:18;;;;;;;;;;;12.90;99.90;;;;;;5029578;28;19941;-64
2023/03/31 13:40:55;;;;;;;;;;;12.70;99.90;;;;;;5031625;28;20303;-63
2023/03/31 13:43:37;;;;;;;;;;;12.50;99.90;;;;;;5030774;28;20288;-65
2023/03/31 13:46:24;;;;;;;;;;;12.50;99.90;;;;;;4990218;28;19925;-67
2023/03/31 13:48:56;;;;;;;;;;;12.40;99.90;;;;;;5029671;28;19932;-63
2023/03/31 13:51:26;;;;;;;;;;;12.50;99.90;;;;;;5033225;28;19929;-64
2023/03/31 13:54:07;;;;;;;;;;;12.50;99.90;;;;;;5026331;28;19935;-64
2023/03/31 13:56:41;;;;;;;;;;;12.60;99.90;;;;;;5015894;28;19932;-65
2023/03/31 13:59:19;;;;;;;;;;;12.70;99.90;;;;;;5033307;28;19933;-64
2023/03/31 14:01:56;;;;;;;;;;;12.70;99.90;;;;;;5031272;28;19925;-65
2023/03/31 14:04:37;;;;;;;;;;;12.80;99.90;;;;;;5030872;28;19937;-65
2023/03/31 14:07:07;;;;;;;;;;;12.80;99.90;;;;;;5033273;28;20551;-65
2023/03/31 14:09:35;;;;;;;;;;;12.80;94.10;;;;;;5030256;28;19930;-65
2023/03/31 14:12:19;;;;;;;;;;;12.70;62.70;;;;;;5033997;28;19931;-64
2023/03/31 14:14:45;;;;;;;;;;;12.80;60.80;;;;;;5027920;28;19926;-65
2023/03/31 14:17:12;;;;;;;;;;;12.80;35.90;;;;;;5033826;28;20292;-64
2023/03/31 14:19:50;;;;;;;;;;;12.70;6.50;;;;;;5031609;28;19935;-66
2023/03/31 14:22:20;;;;;;;;;;;12.70;34.50;;;;;;5033812;28;19933;-64
2023/03/31 14:24:50;;;;;;;;;;;12.70;1.00;;;;;;5028735;28;19925;-66
2023/03/31 14:27:24;;;;;;;;;;;12.80;2.40;;;;;;5033433;28;19925;-65
2023/03/31 14:29:56;;;;;;;;;;;12.80;1.00;;;;;;5028624;28;20388;-65
2023/03/31 14:32:28;;;;;;;;;;;12.90;1.00;;;;;;5029011;28;19989;-64
2023/03/31 14:35:04;;;;;;;;;;;13.00;1.00;;;;;;5028400;28;19968;-67
2023/03/31 14:37:31;;;;;;;;;;;13.10;1.00;;;;;;5029159;28;20311;-66